Pagina principale
METAR-TAF:

METAR-TAF

Aeroporti :

Spaa

Tomaszów Mazowiecki, Polonia

latitudine: 51-35-04N, longitudine: 020-05-52E, altezza: 174 m

METAR: mancante

Ora: 16:57 (14:57 UTC)

Previsione

Il bollettino è stato emesso 3 ore e 57 minuti fa, alle 11:00 UTC
Previsione valida dal 17 alle 12 UTC al 17 alle 24 UTC
Vento 3 kt da direzioni variabili
Visibilità 10 km o più
nessuna nube inferiore a 1500 m e nessun cumulonembo

TAF: EPTM 171100Z 1712/1724 VRB03KT CAVOK

Osservazioni e previsioni meteorologiche di più di 4000 aeroporti (messaggi METAR e TAF).

Le stazioni disponibili sono rappresentate dai dischi gialli e rossi sulla carta.

Puntare il mouse per vedere il nome della stazione.

Clicca sopra per visualizzare le osservazioni e previsioni meteorologiche.

Per cambiare la mappa : fare clic sui pulsanti verdi con una croce nera per ingrandire, il pulsante verde con un trattino per diminuire, o sulla freccia verde per le mappe adiacenti.


METAR-TAF: